createdAt,value
2023-04-01T00:00:25.502Z,2.15
2023-04-01T00:02:52.635Z,4.18
2023-04-01T00:05:20.072Z,1.80
2023-04-01T00:07:47.137Z,2.42
2023-04-01T00:10:15.482Z,2.72
2023-04-01T00:12:42.634Z,3.13
2023-04-01T00:15:11.548Z,3.83
2023-04-01T00:17:38.699Z,2.20
2023-04-01T00:20:08.442Z,2.22
2023-04-01T00:22:35.736Z,1.85
2023-04-01T00:25:03.069Z,2.90
2023-04-01T00:27:29.896Z,1.95
2023-04-01T00:29:57.038Z,1.92
2023-04-01T00:32:23.925Z,3.80
2023-04-01T00:34:54.373Z,1.88
2023-04-01T00:37:22.110Z,2.88
2023-04-01T00:39:49.373Z,4.00
2023-04-01T00:42:16.278Z,3.83
2023-04-01T00:44:43.847Z,1.77
2023-04-01T00:47:11.367Z,1.35
2023-04-01T00:49:41.716Z,4.22
2023-04-01T00:52:12.133Z,2.05
2023-04-01T00:54:43.226Z,2.58
2023-04-01T00:57:26.223Z,2.60
2023-04-01T00:59:56.201Z,3.78
2023-04-01T01:02:24.654Z,2.40
2023-04-01T01:04:51.756Z,2.47
2023-04-01T01:07:28.523Z,2.05
2023-04-01T01:10:17.022Z,3.42
2023-04-01T01:13:05.933Z,2.33
2023-04-01T01:16:02.178Z,2.70
2023-04-01T01:18:39.967Z,1.55
2023-04-01T01:21:24.722Z,2.05
2023-04-01T01:26:51.413Z,7.15
2023-04-01T01:29:45.711Z,5.45
2023-04-01T01:32:38.767Z,1.85
2023-04-01T01:35:32.267Z,1.50
2023-04-01T01:38:11.041Z,2.63
2023-04-01T01:40:41.924Z,2.28
2023-04-01T01:43:12.753Z,2.80
2023-04-01T01:45:47.453Z,3.03
2023-04-01T01:48:16.196Z,2.03
2023-04-01T01:50:45.834Z,1.02
2023-04-01T01:53:14.137Z,4.45
2023-04-01T01:55:43.746Z,4.38
2023-04-01T01:58:25.687Z,2.00
2023-04-01T02:01:02.178Z,0.80
2023-04-01T02:03:32.939Z,2.50
2023-04-01T02:06:02.621Z,2.25
2023-04-01T02:08:45.812Z,2.22
2023-04-01T02:11:21.055Z,3.03
2023-04-01T02:14:02.492Z,2.22
2023-04-01T02:16:55.709Z,4.25
2023-04-01T02:19:28.743Z,3.00
2023-04-01T02:22:02.806Z,3.20
2023-04-01T02:24:32.121Z,2.47
2023-04-01T02:26:59.088Z,2.00
2023-04-01T02:29:29.530Z,1.58
2023-04-01T02:31:56.916Z,3.47
2023-04-01T02:34:25.577Z,1.90
2023-04-01T02:36:53.385Z,1.63
2023-04-01T02:39:20.346Z,2.05
2023-04-01T02:41:47.503Z,1.20
2023-04-01T02:44:16.493Z,7.35
2023-04-01T02:46:44.671Z,2.97
2023-04-01T02:49:12.192Z,3.03
2023-04-01T02:51:39.103Z,1.95
2023-04-01T02:54:06.471Z,2.13
2023-04-01T02:56:33.310Z,1.55
2023-04-01T02:59:00.275Z,2.50
2023-04-01T03:01:27.371Z,1.67
2023-04-01T03:03:54.237Z,2.53
2023-04-01T03:06:21.144Z,2.22
2023-04-01T03:08:48.049Z,2.40
2023-04-01T03:11:15.035Z,2.03
2023-04-01T03:13:42.204Z,2.28
2023-04-01T03:16:09.709Z,1.20
2023-04-01T03:18:36.560Z,3.00
2023-04-01T03:21:21.777Z,2.13
2023-04-01T03:23:48.885Z,1.25
2023-04-01T03:26:15.972Z,1.20
2023-04-01T03:28:43.828Z,2.03
2023-04-01T03:31:11.569Z,3.15
2023-04-01T03:33:44.618Z,3.58
2023-04-01T03:36:13.605Z,4.22
2023-04-01T03:38:44.589Z,1.30
2023-04-01T03:41:18.161Z,3.28
2023-04-01T03:43:45.795Z,1.80
2023-04-01T03:46:17.689Z,3.88
2023-04-01T03:48:44.524Z,0.82
2023-04-01T03:51:11.517Z,2.42
2023-04-01T03:53:38.585Z,1.70
2023-04-01T03:56:07.872Z,2.78
2023-04-01T03:58:37.269Z,2.40
2023-04-01T04:01:17.254Z,3.65
2023-04-01T04:03:45.303Z,1.48
2023-04-01T04:06:14.881Z,1.27
2023-04-01T04:08:42.368Z,1.15
2023-04-01T04:11:09.693Z,1.05
2023-04-01T04:13:39.556Z,3.03
2023-04-01T04:16:07.000Z,1.65
2023-04-01T04:18:35.436Z,1.60
2023-04-01T04:21:02.994Z,2.33
2023-04-01T04:23:31.540Z,1.73
2023-04-01T04:26:00.493Z,2.22
2023-04-01T04:28:29.374Z,1.02
2023-04-01T04:30:58.416Z,3.05
2023-04-01T04:33:26.147Z,1.98
2023-04-01T04:35:56.037Z,1.48
2023-04-01T04:38:23.710Z,1.38
2023-04-01T04:40:50.638Z,1.88
2023-04-01T04:43:19.243Z,1.23
2023-04-01T04:45:46.751Z,1.38
2023-04-01T04:48:19.423Z,2.10
2023-04-01T04:50:51.403Z,2.00
2023-04-01T04:53:20.958Z,0.47
2023-04-01T04:55:49.942Z,1.90
2023-04-01T04:58:38.002Z,0.98
2023-04-01T05:01:14.707Z,1.70
2023-04-01T05:03:43.083Z,1.20
2023-04-01T05:06:13.750Z,2.42
2023-04-01T05:08:41.461Z,1.23
2023-04-01T05:11:13.920Z,2.78
2023-04-01T05:13:43.063Z,1.20
2023-04-01T05:16:12.784Z,1.33
2023-04-01T05:18:40.201Z,1.67
2023-04-01T05:21:09.480Z,3.03
2023-04-01T05:23:36.830Z,1.45
2023-04-01T05:26:09.080Z,2.13
2023-04-01T05:28:36.134Z,1.77
2023-04-01T05:31:04.896Z,0.60
2023-04-01T05:33:36.026Z,2.10
2023-04-01T05:36:15.353Z,1.23
2023-04-01T05:38:43.513Z,1.10
2023-04-01T05:41:12.303Z,0.75
2023-04-01T05:43:43.652Z,1.50
2023-04-01T05:46:29.443Z,1.33
2023-04-01T05:49:15.222Z,1.60
2023-04-01T05:51:42.756Z,2.40
2023-04-01T05:54:10.115Z,1.75
2023-04-01T05:56:38.120Z,0.90
2023-04-01T05:59:05.752Z,4.13
2023-04-01T06:01:32.995Z,2.30
2023-04-01T06:03:59.991Z,1.48
2023-04-01T06:06:29.481Z,1.55
2023-04-01T06:09:27.044Z,1.30
2023-04-01T06:12:14.536Z,1.05
2023-04-01T06:15:05.179Z,0.70
2023-04-01T06:18:03.649Z,1.30
2023-04-01T06:20:55.544Z,1.20
2023-04-01T06:24:07.337Z,1.73
2023-04-01T06:27:05.728Z,0.43
2023-04-01T06:29:40.920Z,1.20
2023-04-01T06:32:10.748Z,0.85
2023-04-01T06:34:40.713Z,0.73
2023-04-01T06:37:36.653Z,1.20
2023-04-01T06:40:28.519Z,1.75
2023-04-01T06:43:14.283Z,0.70
2023-04-01T06:46:13.287Z,1.38
2023-04-01T06:49:19.640Z,0.40
2023-04-01T06:52:34.563Z,1.83
2023-04-01T06:55:38.861Z,1.87
2023-04-01T06:58:28.345Z,1.40
2023-04-01T07:00:59.732Z,0.98
2023-04-01T07:03:34.082Z,0.43
2023-04-01T07:06:06.915Z,0.68
2023-04-01T07:08:42.960Z,0.52
2023-04-01T07:11:24.991Z,0.75
2023-04-01T07:14:35.039Z,0.15
2023-04-01T07:17:13.306Z,0.57
2023-04-01T07:20:18.193Z,1.08
2023-04-01T07:22:49.172Z,0.80
2023-04-01T07:25:46.654Z,0.30
2023-04-01T07:28:36.224Z,0.40
2023-04-01T07:31:31.572Z,0.77
2023-04-01T07:34:17.873Z,0.40
2023-04-01T07:36:54.048Z,0.93
2023-04-01T07:39:39.582Z,1.13
2023-04-01T07:42:49.828Z,1.00
2023-04-01T07:45:35.259Z,0.50
2023-04-01T07:48:11.420Z,0.52
2023-04-01T07:50:49.161Z,0.43
2023-04-01T07:53:57.895Z,0.47
2023-04-01T07:56:40.029Z,0.70
2023-04-01T07:59:35.229Z,0.35
2023-04-01T08:02:14.453Z,0.73
2023-04-01T08:04:57.314Z,0.35
2023-04-01T08:07:46.898Z,0.60
2023-04-01T08:11:14.329Z,0.88
2023-04-01T08:14:18.264Z,0.20
2023-04-01T08:20:12.782Z,0.70
2023-04-01T08:22:44.632Z,0.68
2023-04-01T08:25:28.137Z,0.85
2023-04-01T08:28:09.292Z,0.70
2023-04-01T08:30:59.991Z,0.50
2023-04-01T08:33:29.664Z,0.57
2023-04-01T08:36:17.835Z,0.35
2023-04-01T08:39:18.313Z,0.30
2023-04-01T08:42:17.125Z,0.93
2023-04-01T08:45:14.891Z,0.28
2023-04-01T08:47:58.294Z,2.88
2023-04-01T08:50:29.705Z,1.35
2023-04-01T08:53:40.877Z,2.08
2023-04-01T08:56:26.701Z,0.77
2023-04-01T08:59:13.761Z,4.05
2023-04-01T09:02:01.668Z,1.63
2023-04-01T09:05:12.432Z,1.02
2023-04-01T09:08:21.698Z,1.58
2023-04-01T09:11:06.140Z,0.50
2023-04-01T09:14:22.875Z,1.77
2023-04-01T09:17:15.223Z,3.40
2023-04-01T09:20:03.749Z,0.30
2023-04-01T09:22:38.815Z,0.30
2023-04-01T09:25:39.675Z,0.47
2023-04-01T09:28:19.945Z,0.35
2023-04-01T09:31:05.583Z,0.52
2023-04-01T09:34:00.419Z,0.55
2023-04-01T09:36:47.392Z,0.15
2023-04-01T09:39:38.303Z,0.88
2023-04-01T09:42:42.659Z,0.30
2023-04-01T09:45:29.441Z,0.30
2023-04-01T09:48:17.094Z,0.85
2023-04-01T09:51:13.501Z,0.60
2023-04-01T09:53:49.435Z,0.10
2023-04-01T09:56:43.647Z,0.20
2023-04-01T09:59:47.602Z,0.20
2023-04-01T10:02:45.348Z,0.95
2023-04-01T10:05:18.616Z,0.68
2023-04-01T10:08:03.633Z,0.93
2023-04-01T10:10:49.835Z,0.77
2023-04-01T10:13:39.347Z,1.00
2023-04-01T10:16:43.711Z,0.32
2023-04-01T10:19:54.578Z,0.70
2023-04-01T10:23:02.085Z,0.93
2023-04-01T10:25:29.386Z,0.57
2023-04-01T10:28:14.660Z,0.45
2023-04-01T10:31:52.689Z,1.75
2023-04-01T10:34:52.128Z,0.32
2023-04-01T10:37:51.900Z,0.30
2023-04-01T10:40:47.027Z,0.32
2023-04-01T10:43:16.601Z,0.50
2023-04-01T10:46:19.772Z,0.30
2023-04-01T10:49:12.547Z,0.43
2023-04-01T10:51:51.183Z,0.20
2023-04-01T10:54:50.330Z,0.63
2023-04-01T10:58:11.041Z,0.93
2023-04-01T11:01:15.513Z,0.20
2023-04-01T11:04:55.995Z,0.17
2023-04-01T11:08:16.377Z,0.20
2023-04-01T11:11:04.630Z,0.10
2023-04-01T11:14:05.921Z,0.10
2023-04-01T11:16:57.776Z,0.20
2023-04-01T11:19:39.922Z,0.20
2023-04-01T11:22:39.015Z,0.47
2023-04-01T11:25:26.860Z,0.60
2023-04-01T11:28:36.999Z,0.20
2023-04-01T11:31:24.866Z,0.28
2023-04-01T11:33:58.240Z,0.20
2023-04-01T11:36:56.648Z,0.20
2023-04-01T11:39:50.339Z,1.00
2023-04-01T11:43:13.114Z,1.83
2023-04-01T11:46:20.909Z,0.10
2023-04-01T11:49:01.810Z,1.05
2023-04-01T11:51:39.650Z,0.20
2023-04-01T11:54:42.471Z,0.10
2023-04-01T11:57:46.403Z,0.10
2023-04-01T12:00:25.701Z,0.68
2023-04-01T12:03:27.830Z,0.30
2023-04-01T12:06:14.015Z,0.20
2023-04-01T12:08:54.681Z,0.63
2023-04-01T12:12:25.950Z,0.10
2023-04-01T12:15:20.621Z,0.20
2023-04-01T12:18:13.162Z,0.82
2023-04-01T12:20:51.868Z,0.15
2023-04-01T12:23:21.784Z,0.20
2023-04-01T12:25:54.820Z,0.10
2023-04-01T12:28:31.262Z,0.10
2023-04-01T12:31:25.127Z,0.17
2023-04-01T12:34:29.661Z,0.30
2023-04-01T12:37:18.333Z,0.30
2023-04-01T12:39:58.939Z,0.10
2023-04-01T12:42:31.975Z,0.10
2023-04-01T12:44:59.302Z,0.30
2023-04-01T12:47:35.109Z,1.27
2023-04-01T12:50:11.307Z,0.10
2023-04-01T12:53:10.408Z,0.20
2023-04-01T12:55:42.622Z,0.10
2023-04-01T12:58:50.453Z,0.22
2023-04-01T13:01:43.801Z,0.28
2023-04-01T13:04:16.884Z,0.38
2023-04-01T13:06:56.909Z,0.30
2023-04-01T13:09:52.070Z,0.17
2023-04-01T13:12:38.406Z,0.30
2023-04-01T13:15:19.039Z,0.28
2023-04-01T13:18:13.901Z,0.20
2023-04-01T13:21:09.329Z,0.63
2023-04-01T13:23:51.794Z,0.20
2023-04-01T13:26:49.103Z,0.75
2023-04-01T13:29:24.649Z,0.40
2023-04-01T13:31:54.764Z,1.23
2023-04-01T13:34:51.743Z,0.47
2023-04-01T13:37:47.609Z,1.00
2023-04-01T13:40:36.466Z,0.82
2023-04-01T13:43:13.484Z,0.68
2023-04-01T13:46:03.376Z,0.30
2023-04-01T13:48:48.785Z,0.30
2023-04-01T13:51:30.626Z,0.30
2023-04-01T13:54:15.676Z,1.40
2023-04-01T13:57:16.626Z,0.50
2023-04-01T14:00:15.925Z,0.55
2023-04-01T14:03:07.294Z,0.68
2023-04-01T14:05:53.931Z,0.30
2023-04-01T14:08:58.575Z,0.55
2023-04-01T14:11:47.703Z,0.30
2023-04-01T14:14:20.875Z,0.30
2023-04-01T14:17:08.886Z,0.17
2023-04-01T14:19:54.765Z,0.20
2023-04-01T14:23:32.701Z,0.43
2023-04-01T14:26:17.443Z,0.85
2023-04-01T14:31:35.672Z,0.52
2023-04-01T14:34:40.031Z,0.38
2023-04-01T14:37:44.067Z,0.20
2023-04-01T14:40:29.667Z,0.20
2023-04-01T14:43:17.599Z,0.70
2023-04-01T14:46:21.300Z,0.70
2023-04-01T14:49:02.875Z,0.30
2023-04-01T14:51:35.605Z,0.03
2023-04-01T14:54:36.770Z,0.50
2023-04-01T14:57:13.396Z,0.70
2023-04-01T14:59:46.877Z,0.20
2023-04-01T15:02:13.848Z,1.70
2023-04-01T15:04:55.920Z,0.13
2023-04-01T15:07:37.494Z,0.45
2023-04-01T15:10:24.534Z,0.15
2023-04-01T15:13:00.728Z,0.40
2023-04-01T15:15:33.054Z,0.32
2023-04-01T15:18:19.502Z,0.57
2023-04-01T15:21:11.147Z,0.43
2023-04-01T15:24:09.989Z,0.88
2023-04-01T15:26:45.879Z,0.30
2023-04-01T15:29:34.481Z,0.80
2023-04-01T15:32:19.896Z,0.30
2023-04-01T15:35:11.098Z,0.40
2023-04-01T15:37:57.975Z,0.20
2023-04-01T15:40:55.627Z,0.20
2023-04-01T15:43:43.404Z,0.63
2023-04-01T15:46:21.997Z,0.32
2023-04-01T15:49:12.414Z,0.47
2023-04-01T15:52:03.719Z,0.30
2023-04-01T15:54:48.566Z,0.60
2023-04-01T15:57:52.718Z,0.40
2023-04-01T16:00:28.595Z,0.40
2023-04-01T16:03:14.834Z,0.85
2023-04-01T16:06:21.190Z,1.30
2023-04-01T16:08:53.965Z,2.60
2023-04-01T16:12:14.101Z,0.82
2023-04-01T16:15:09.902Z,0.35
2023-04-01T16:18:23.244Z,0.20
2023-04-01T16:21:02.599Z,0.43
2023-04-01T16:23:51.508Z,0.47
2023-04-01T16:26:58.795Z,0.50
2023-04-01T16:29:49.110Z,1.27
2023-04-01T16:32:32.441Z,0.47
2023-04-01T16:35:14.433Z,0.22
2023-04-01T16:37:47.863Z,0.35
2023-04-01T16:40:51.520Z,0.10
2023-04-01T16:43:39.893Z,0.20
2023-04-01T16:46:15.530Z,0.38
2023-04-01T16:48:58.015Z,0.40
2023-04-01T16:51:25.983Z,0.85
2023-04-01T16:54:13.049Z,0.65
2023-04-01T16:56:51.459Z,0.20
2023-04-01T16:59:34.285Z,0.30
2023-04-01T17:02:01.261Z,0.50
2023-04-01T17:04:52.009Z,0.20
2023-04-01T17:07:44.977Z,0.32
2023-04-01T17:10:29.681Z,0.80
2023-04-01T17:13:21.976Z,0.30
2023-04-01T17:16:07.517Z,1.83
2023-04-01T17:18:58.752Z,0.30
2023-04-01T17:21:28.663Z,0.20
2023-04-01T17:24:26.285Z,1.45
2023-04-01T17:27:04.676Z,0.45
2023-04-01T17:30:19.292Z,0.30
2023-04-01T17:33:08.140Z,0.20
2023-04-01T17:35:48.707Z,0.75
2023-04-01T17:38:27.736Z,0.20
2023-04-01T17:41:03.891Z,0.10
2023-04-01T17:43:43.162Z,0.20
2023-04-01T17:46:28.471Z,0.30
2023-04-01T17:49:16.525Z,0.40
2023-04-01T17:52:30.947Z,0.63
2023-04-01T17:55:11.759Z,0.38
2023-04-01T17:57:49.505Z,0.50
2023-04-01T18:00:52.901Z,0.73
2023-04-01T18:03:50.602Z,0.50
2023-04-01T18:06:39.666Z,1.20
2023-04-01T18:09:26.999Z,1.10
2023-04-01T18:12:11.602Z,0.70
2023-04-01T18:14:51.114Z,0.70
2023-04-01T18:17:57.556Z,1.25
2023-04-01T18:20:53.425Z,0.32
2023-04-01T18:23:26.132Z,0.30
2023-04-01T18:26:02.940Z,0.30
2023-04-01T18:28:44.646Z,0.35
2023-04-01T18:31:21.329Z,0.40
2023-04-01T18:34:03.052Z,0.22
2023-04-01T18:36:56.430Z,1.92
2023-04-01T18:39:35.058Z,1.23
2023-04-01T18:42:28.911Z,0.20
2023-04-01T18:45:18.976Z,0.47
2023-04-01T18:47:58.812Z,0.10
2023-04-01T18:50:29.197Z,0.30
2023-04-01T18:53:18.577Z,0.60
2023-04-01T18:55:56.740Z,0.20
2023-04-01T18:59:14.484Z,0.60
2023-04-01T19:02:03.714Z,0.80
2023-04-01T19:05:01.615Z,0.40
2023-04-01T19:07:37.891Z,0.30
2023-04-01T19:10:21.628Z,0.95
2023-04-01T19:13:12.696Z,1.65
2023-04-01T19:16:09.561Z,0.98
2023-04-01T19:19:12.247Z,0.65
2023-04-01T19:22:05.022Z,0.30
2023-04-01T19:24:57.049Z,0.57
2023-04-01T19:27:47.968Z,0.45
2023-04-01T19:30:21.422Z,0.68
2023-04-01T19:33:27.226Z,0.80
2023-04-01T19:36:00.061Z,0.77
2023-04-01T19:38:29.743Z,1.35
2023-04-01T19:41:00.557Z,0.70
2023-04-01T19:43:46.502Z,1.30
2023-04-01T19:46:32.916Z,0.40
2023-04-01T19:49:21.676Z,0.40
2023-04-01T19:52:25.055Z,0.50
2023-04-01T19:55:10.416Z,0.80
2023-04-01T19:58:00.878Z,2.55
2023-04-01T20:00:52.226Z,0.65
2023-04-01T20:03:30.397Z,0.88
2023-04-01T20:06:06.496Z,0.73
2023-04-01T20:09:07.430Z,0.60
2023-04-01T20:11:34.294Z,0.63
2023-04-01T20:14:33.326Z,0.80
2023-04-01T20:17:02.910Z,0.35
2023-04-01T20:19:49.769Z,0.70
2023-04-01T20:22:44.526Z,0.60
2023-04-01T20:25:34.875Z,0.47
2023-04-01T20:28:20.415Z,1.90
2023-04-01T20:31:02.960Z,1.25
2023-04-01T20:34:13.485Z,0.85
2023-04-01T20:37:01.691Z,0.80
2023-04-01T20:40:09.940Z,0.50
2023-04-01T20:42:55.122Z,1.00
2023-04-01T20:45:22.062Z,0.60
2023-04-01T20:47:51.880Z,0.40
2023-04-01T20:50:59.460Z,0.50
2023-04-01T20:53:37.945Z,0.77
2023-04-01T20:56:16.398Z,0.47
2023-04-01T20:58:54.994Z,1.45
2023-04-01T21:01:39.862Z,0.43
2023-04-01T21:04:10.587Z,0.73
2023-04-01T21:07:02.262Z,0.90
2023-04-01T21:09:46.964Z,0.50
2023-04-01T21:15:26.480Z,0.95
2023-04-01T21:18:32.407Z,0.43
2023-04-01T21:21:17.509Z,0.43
2023-04-01T21:23:54.517Z,0.35
2023-04-01T21:26:48.927Z,0.80
2023-04-01T21:29:33.907Z,1.27
2023-04-01T21:32:25.665Z,0.75
2023-04-01T21:35:09.730Z,0.85
2023-04-01T21:37:42.695Z,0.50
2023-04-01T21:40:15.573Z,0.60
2023-04-01T21:42:50.609Z,0.50
2023-04-01T21:45:26.611Z,0.65
2023-04-01T21:48:19.747Z,0.90
2023-04-01T21:51:05.437Z,1.08
2023-04-01T21:53:53.845Z,0.80
2023-04-01T21:56:39.591Z,0.30
2023-04-01T21:59:53.928Z,0.43
2023-04-01T22:02:38.900Z,0.47
2023-04-01T22:05:23.250Z,0.60
2023-04-01T22:07:58.909Z,0.70
2023-04-01T22:10:42.453Z,0.65
2023-04-01T22:13:33.595Z,0.45
2023-04-01T22:16:18.983Z,0.50
2023-04-01T22:19:14.254Z,0.40
2023-04-01T22:21:45.816Z,0.57
2023-04-01T22:24:25.382Z,1.77
2023-04-01T22:27:12.547Z,0.80
2023-04-01T22:29:43.359Z,1.05
2023-04-01T22:32:44.500Z,0.52
2023-04-01T22:35:20.289Z,0.60
2023-04-01T22:38:20.584Z,1.35
2023-04-01T22:41:10.032Z,0.60
2023-04-01T22:43:42.647Z,1.65
2023-04-01T22:46:58.239Z,1.23
2023-04-01T22:49:56.532Z,0.55
2023-04-01T22:52:35.570Z,0.70
2023-04-01T22:55:11.360Z,0.95
2023-04-01T22:57:47.573Z,0.82
2023-04-01T23:00:23.854Z,1.08
2023-04-01T23:03:19.745Z,1.05
2023-04-01T23:05:55.322Z,1.77
2023-04-01T23:08:53.393Z,0.63
2023-04-01T23:11:29.066Z,0.70
2023-04-01T23:14:06.126Z,0.55
2023-04-01T23:16:40.559Z,0.60
2023-04-01T23:21:52.775Z,1.15
2023-04-01T23:24:31.782Z,0.52
2023-04-01T23:27:21.897Z,0.63
2023-04-01T23:29:48.706Z,0.63
2023-04-01T23:32:20.388Z,1.00
2023-04-01T23:34:52.681Z,1.27
2023-04-01T23:37:21.024Z,1.05
2023-04-01T23:39:56.836Z,1.17
2023-04-01T23:42:33.413Z,0.80
2023-04-01T23:45:05.769Z,0.95
2023-04-01T23:47:35.535Z,0.60
2023-04-01T23:50:07.024Z,0.60
2023-04-01T23:52:47.999Z,0.60
2023-04-01T23:55:22.772Z,0.65
2023-04-01T23:58:12.033Z,0.70
